Time;durP1;ratioP1;P1;durP2;ratioP2;P2;SDS_P1;SDS_P2;PMS_P1;PMS_P2;Temp;Humidity;BMP_temperature;BMP_pressure;BME280_temperature;BME280_humidity;BME280_pressure;Samples;Min_cycle;Max_cycle;Signal;HPM_P1;HPM_P2
2022/11/25 00:00:11;;;;;;;21.30;8.40;;;9.40;99.90;;;;;;5052462;28;20090;-63
2022/11/25 00:02:42;;;;;;;23.15;9.10;;;9.40;99.90;;;;;;5052471;28;20029;-63
2022/11/25 00:05:08;;;;;;;19.30;7.82;;;9.40;99.90;;;;;;5052285;28;20429;-63
2022/11/25 00:07:35;;;;;;;27.65;9.20;;;9.40;99.90;;;;;;5052423;28;20032;-63
2022/11/25 00:10:01;;;;;;;22.15;9.15;;;9.30;99.90;;;;;;5052155;28;20024;-63
2022/11/25 00:12:26;;;;;;;26.23;9.25;;;9.30;99.90;;;;;;5052266;28;20107;-62
2022/11/25 00:14:52;;;;;;;27.52;9.55;;;9.20;99.90;;;;;;5052193;28;20125;-63
2022/11/25 00:17:18;;;;;;;28.30;7.85;;;9.20;99.90;;;;;;5052257;28;20512;-63
2022/11/25 00:19:44;;;;;;;25.38;9.02;;;9.40;99.90;;;;;;5051897;28;20033;-62
2022/11/25 00:22:09;;;;;;;29.63;8.60;;;9.40;99.90;;;;;;5052167;28;20029;-62
2022/11/25 00:24:35;;;;;;;21.23;7.68;;;9.40;99.90;;;;;;5051916;28;20163;-63
2022/11/25 00:27:03;;;;;;;24.15;8.68;;;9.50;99.90;;;;;;5050497;28;20033;-63
2022/11/25 00:29:29;;;;;;;33.55;10.77;;;9.60;99.90;;;;;;5051905;28;20013;-62
2022/11/25 00:31:55;;;;;;;19.23;7.85;;;9.60;99.90;;;;;;5052435;28;20339;-63
2022/11/25 00:34:21;;;;;;;23.38;8.00;;;9.60;99.90;;;;;;5051630;28;20081;-63
2022/11/25 00:36:47;;;;;;;25.98;9.73;;;9.80;99.90;;;;;;5051769;28;20024;-63
2022/11/25 00:39:15;;;;;;;35.22;10.07;;;9.70;99.90;;;;;;5051685;28;20032;-62
2022/11/25 00:44:35;;;;;;;27.65;9.98;;;9.50;99.90;;;;;;5052217;28;20063;-62
2022/11/25 00:47:03;;;;;;;34.35;11.10;;;9.40;99.90;;;;;;5051633;28;20036;-62
2022/11/25 00:49:29;;;;;;;29.48;10.63;;;9.30;99.90;;;;;;5051534;28;20025;-62
2022/11/25 00:51:55;;;;;;;23.88;8.65;;;9.30;99.90;;;;;;5051635;28;20075;-63
2022/11/25 00:54:20;;;;;;;28.98;10.55;;;9.50;99.90;;;;;;5051962;28;20078;-62
2022/11/25 00:56:46;;;;;;;23.63;9.10;;;9.50;99.90;;;;;;5051617;28;20056;-63
2022/11/25 00:59:12;;;;;;;34.75;11.45;;;9.50;99.90;;;;;;5051713;28;20471;-63
2022/11/25 01:01:38;;;;;;;27.85;9.88;;;9.30;99.90;;;;;;5051628;28;20029;-63
2022/11/25 01:04:05;;;;;;;27.95;10.18;;;9.50;99.90;;;;;;5051625;28;20379;-63
2022/11/25 01:06:31;;;;;;;30.05;10.95;;;9.20;99.90;;;;;;5051595;28;20040;-63
2022/11/25 01:08:56;;;;;;;34.67;11.57;;;9.00;99.90;;;;;;5050120;28;20021;-62
2022/11/25 01:11:23;;;;;;;32.75;11.10;;;9.00;99.90;;;;;;5052112;28;20092;-63
2022/11/25 01:13:49;;;;;;;37.80;12.07;;;9.00;99.90;;;;;;5051619;28;20401;-63
2022/11/25 01:16:17;;;;;;;34.55;11.02;;;9.10;99.90;;;;;;5051387;28;20017;-63
2022/11/25 01:18:44;;;;;;;25.98;10.05;;;9.30;99.90;;;;;;5051210;28;20028;-62
2022/11/25 01:21:22;;;;;;;36.30;12.00;;;9.30;99.90;;;;;;5050592;28;20033;-62
2022/11/25 01:23:48;;;;;;;37.20;12.02;;;9.40;99.90;;;;;;5051456;28;20021;-62
2022/11/25 01:26:17;;;;;;;29.10;10.05;;;9.40;99.90;;;;;;5051082;28;20083;-62
2022/11/25 01:28:43;;;;;;;22.55;10.70;;;9.40;99.90;;;;;;5051344;28;20049;-63
2022/11/25 01:31:13;;;;;;;23.67;10.70;;;9.40;99.90;;;;;;5051825;28;20033;-62
2022/11/25 01:33:39;;;;;;;34.67;15.95;;;9.40;99.90;;;;;;5050989;28;20383;-63
2022/11/25 01:36:16;;;;;;;27.95;11.07;;;9.50;99.90;;;;;;5051065;28;20437;-63
2022/11/25 01:38:42;;;;;;;26.20;11.07;;;9.50;99.90;;;;;;5051065;28;20478;-63
2022/11/25 01:41:11;;;;;;;30.38;12.88;;;9.50;99.90;;;;;;5051131;28;20131;-63
2022/11/25 01:43:36;;;;;;;41.22;13.95;;;9.50;99.90;;;;;;5051437;28;20021;-62
2022/11/25 01:46:19;;;;;;;35.13;13.00;;;9.60;99.90;;;;;;5051065;28;20029;-63
2022/11/25 01:49:02;;;;;;;24.05;9.65;;;9.70;99.90;;;;;;5050765;28;20492;-63
2022/11/25 01:51:36;;;;;;;31.77;10.75;;;9.80;99.90;;;;;;5051075;28;20033;-63
2022/11/25 01:54:03;;;;;;;36.40;11.40;;;9.80;99.90;;;;;;5051231;28;20087;-63
2022/11/25 01:56:35;;;;;;;35.00;11.32;;;9.80;99.90;;;;;;5053971;28;20025;-63
2022/11/25 01:59:01;;;;;;;27.83;10.32;;;9.80;99.90;;;;;;5055019;28;20033;-63
2022/11/25 02:01:27;;;;;;;32.15;10.68;;;9.80;99.90;;;;;;5054320;28;20040;-63
2022/11/25 02:03:56;;;;;;;32.72;10.70;;;9.80;99.90;;;;;;5054726;28;20021;-62
2022/11/25 02:06:24;;;;;;;35.70;11.60;;;9.90;99.90;;;;;;5054457;28;20033;-63
2022/11/25 02:08:59;;;;;;;26.48;9.38;;;9.80;99.90;;;;;;5054613;28;20025;-63
2022/11/25 02:11:27;;;;;;;27.85;9.55;;;9.70;99.90;;;;;;5054585;28;20024;-63
2022/11/25 02:13:53;;;;;;;32.35;11.05;;;9.80;99.90;;;;;;5055181;28;20017;-63
2022/11/25 02:16:19;;;;;;;37.67;11.85;;;9.80;99.90;;;;;;5054105;28;20025;-63
2022/11/25 02:18:45;;;;;;;38.85;12.30;;;9.90;99.90;;;;;;5054231;28;20071;-63
2022/11/25 02:21:14;;;;;;;30.67;10.50;;;9.80;99.90;;;;;;5054255;28;20025;-63
2022/11/25 02:23:54;;;;;;;34.72;10.65;;;9.90;99.90;;;;;;5054238;28;20071;-64
2022/11/25 02:26:20;;;;;;;40.40;11.90;;;9.90;99.90;;;;;;5053996;28;20035;-63
2022/11/25 02:28:47;;;;;;;29.80;10.93;;;10.00;99.90;;;;;;5054049;28;20469;-63
2022/11/25 02:31:19;;;;;;;34.90;10.82;;;10.10;99.90;;;;;;5053757;28;20482;-63
2022/11/25 02:33:45;;;;;;;35.53;11.48;;;10.20;99.90;;;;;;5054176;28;20447;-63
2022/11/25 02:36:16;;;;;;;25.00;9.43;;;10.20;99.90;;;;;;5054155;28;20059;-63
2022/11/25 02:38:43;;;;;;;27.90;9.88;;;10.20;99.90;;;;;;5053882;28;20029;-63
2022/11/25 02:41:15;;;;;;;26.65;9.00;;;10.20;99.90;;;;;;5053634;28;20069;-63
2022/11/25 02:43:41;;;;;;;22.08;8.02;;;10.30;99.90;;;;;;5053820;28;20025;-63
2022/11/25 02:46:15;;;;;;;20.52;7.40;;;10.30;99.90;;;;;;5053420;28;20021;-63
2022/11/25 02:48:42;;;;;;;33.97;9.77;;;10.40;99.90;;;;;;5053784;28;20040;-63
2022/11/25 02:51:10;;;;;;;28.52;8.85;;;10.40;99.90;;;;;;5053691;28;20051;-63
2022/11/25 02:53:36;;;;;;;23.27;8.02;;;10.40;99.90;;;;;;5054097;28;20021;-63
2022/11/25 02:56:02;;;;;;;31.48;8.48;;;10.60;99.90;;;;;;5054004;28;20032;-63
2022/11/25 02:58:27;;;;;;;24.58;7.72;;;10.50;99.90;;;;;;5053873;28;20439;-63
2022/11/25 03:00:54;;;;;;;30.25;9.43;;;10.40;99.90;;;;;;5053265;28;20063;-63
2022/11/25 03:03:19;;;;;;;27.98;9.00;;;10.40;99.90;;;;;;5053848;28;20028;-63
2022/11/25 03:05:45;;;;;;;30.77;8.98;;;10.40;99.90;;;;;;5053144;28;20413;-63
2022/11/25 03:08:11;;;;;;;32.70;8.20;;;10.40;99.90;;;;;;5053339;28;20442;-63
2022/11/25 03:10:37;;;;;;;32.97;9.18;;;10.50;99.90;;;;;;5053438;28;20083;-63
2022/11/25 03:13:03;;;;;;;31.20;9.35;;;10.50;99.90;;;;;;5053489;28;20078;-63
2022/11/25 03:15:29;;;;;;;36.72;8.27;;;10.50;99.90;;;;;;5053295;28;20021;-63
2022/11/25 03:17:55;;;;;;;34.90;9.00;;;10.50;99.90;;;;;;5052063;28;20074;-63
2022/11/25 03:20:21;;;;;;;24.50;7.28;;;10.60;99.90;;;;;;5053227;28;20373;-63
2022/11/25 03:22:47;;;;;;;38.30;9.05;;;10.50;99.90;;;;;;5053171;28;20040;-62
2022/11/25 03:25:14;;;;;;;31.50;8.15;;;10.60;99.90;;;;;;5053350;28;20523;-63
2022/11/25 03:27:40;;;;;;;39.47;8.60;;;10.60;99.90;;;;;;5053256;28;20079;-63
2022/11/25 03:30:09;;;;;;;46.00;9.35;;;10.70;99.90;;;;;;5052599;28;20167;-63
2022/11/25 03:32:35;;;;;;;37.28;8.07;;;10.70;99.90;;;;;;5053050;28;20028;-63
2022/11/25 03:35:01;;;;;;;29.27;7.85;;;10.70;99.90;;;;;;5052698;28;20021;-63
2022/11/25 03:37:26;;;;;;;43.00;8.80;;;10.70;99.90;;;;;;5052893;28;20551;-62
2022/11/25 03:39:52;;;;;;;21.05;6.75;;;10.70;99.90;;;;;;5053095;28;20037;-63
2022/11/25 03:42:18;;;;;;;42.08;9.00;;;10.80;99.90;;;;;;5052926;28;20032;-63
2022/11/25 03:44:43;;;;;;;30.88;7.10;;;10.70;99.90;;;;;;5052300;28;20029;-63
2022/11/25 03:47:10;;;;;;;26.02;7.20;;;10.70;99.90;;;;;;5052637;28;20064;-62
2022/11/25 03:49:36;;;;;;;37.90;8.02;;;10.80;99.90;;;;;;5052947;28;20021;-63
2022/11/25 03:52:01;;;;;;;38.80;8.05;;;10.90;99.90;;;;;;5052497;28;20079;-63
2022/11/25 03:54:27;;;;;;;25.92;7.00;;;10.80;99.90;;;;;;5052561;28;20039;-63
2022/11/25 03:56:53;;;;;;;42.97;7.40;;;11.00;99.90;;;;;;5052804;28;20497;-63
2022/11/25 03:59:18;;;;;;;26.50;6.97;;;11.00;99.90;;;;;;5052114;28;20036;-63
2022/11/25 04:01:44;;;;;;;33.25;6.93;;;10.90;99.90;;;;;;5052292;28;20386;-63
2022/11/25 04:04:10;;;;;;;35.13;7.75;;;10.90;99.90;;;;;;5052477;28;20024;-63
2022/11/25 04:06:38;;;;;;;31.75;6.85;;;11.00;99.90;;;;;;5052059;28;20540;-63
2022/11/25 04:09:05;;;;;;;36.38;7.30;;;10.90;99.90;;;;;;5052732;28;20488;-63
2022/11/25 04:14:15;;;;;;;26.70;6.47;;;10.90;99.90;;;;;;5052334;28;20071;-63
2022/11/25 04:16:40;;;;;;;35.33;14.07;;;10.80;99.90;;;;;;5052530;28;20025;-63
2022/11/25 04:19:06;;;;;;;36.20;7.78;;;10.90;99.90;;;;;;5051562;28;20497;-63
2022/11/25 04:21:32;;;;;;;29.38;7.35;;;10.80;99.90;;;;;;5051705;28;20113;-63
2022/11/25 04:23:58;;;;;;;35.58;17.15;;;10.80;99.90;;;;;;5051465;28;20478;-63
2022/11/25 04:26:23;;;;;;;45.15;10.32;;;10.70;99.90;;;;;;5051507;28;20481;-63
2022/11/25 04:28:49;;;;;;;30.33;6.40;;;10.90;99.90;;;;;;5052141;28;20017;-63
2022/11/25 04:31:15;;;;;;;29.63;6.80;;;11.00;99.90;;;;;;5051819;28;20466;-63
2022/11/25 04:33:40;;;;;;;31.73;7.22;;;10.90;99.90;;;;;;5052387;28;20024;-63
2022/11/25 04:36:06;;;;;;;23.75;6.30;;;10.90;99.90;;;;;;5050479;28;20029;-63
2022/11/25 04:38:32;;;;;;;21.10;5.88;;;10.90;99.90;;;;;;5051927;28;20059;-63
2022/11/25 04:40:58;;;;;;;31.35;6.15;;;11.10;99.90;;;;;;5051600;28;20629;-63
2022/11/25 04:43:24;;;;;;;24.27;5.88;;;11.20;99.90;;;;;;5051773;28;20100;-63
2022/11/25 04:45:51;;;;;;;28.83;5.97;;;11.30;99.90;;;;;;5051579;28;20032;-63
2022/11/25 04:48:16;;;;;;;25.20;5.40;;;11.30;99.90;;;;;;5052163;28;20021;-63
2022/11/25 04:50:43;;;;;;;26.75;5.70;;;11.30;99.90;;;;;;5051878;28;20029;-63
2022/11/25 04:53:08;;;;;;;24.05;5.93;;;11.40;99.90;;;;;;5051730;28;20018;-63
2022/11/25 04:55:34;;;;;;;29.55;6.30;;;11.40;99.90;;;;;;5051481;28;20029;-63
2022/11/25 04:58:00;;;;;;;28.75;6.18;;;11.40;99.90;;;;;;5051586;28;20053;-63
2022/11/25 05:00:25;;;;;;;25.67;5.75;;;11.30;99.90;;;;;;5052018;28;20031;-63
2022/11/25 05:02:51;;;;;;;26.52;5.65;;;11.30;99.90;;;;;;5051618;28;20036;-63
2022/11/25 05:05:17;;;;;;;33.33;6.22;;;11.40;99.90;;;;;;5051501;28;20033;-63
2022/11/25 05:07:43;;;;;;;29.63;6.63;;;11.40;99.90;;;;;;5051524;28;20033;-63
2022/11/25 05:10:08;;;;;;;25.38;5.75;;;11.30;99.90;;;;;;5051621;28;20033;-63
2022/11/25 05:12:34;;;;;;;30.63;6.18;;;11.30;99.90;;;;;;5051027;28;20453;-63
2022/11/25 05:15:00;;;;;;;30.35;7.18;;;11.40;99.90;;;;;;5051890;28;20025;-63
2022/11/25 05:17:29;;;;;;;31.17;7.57;;;11.30;99.90;;;;;;5051373;28;20409;-64
2022/11/25 05:19:55;;;;;;;31.65;8.02;;;11.30;99.90;;;;;;5051476;28;20029;-64
2022/11/25 05:22:24;;;;;;;29.95;7.38;;;11.30;99.90;;;;;;5051681;28;20048;-63
2022/11/25 05:24:50;;;;;;;32.63;8.02;;;11.30;99.90;;;;;;5050926;28;20021;-64
2022/11/25 05:27:16;;;;;;;28.90;7.20;;;11.20;99.90;;;;;;5051346;28;20037;-63
2022/11/25 05:29:42;;;;;;;32.92;8.45;;;11.20;99.90;;;;;;5051770;28;20039;-63
2022/11/25 05:32:08;;;;;;;25.10;6.93;;;11.20;99.90;;;;;;5055291;28;20029;-63
2022/11/25 05:34:34;;;;;;;33.85;6.25;;;11.20;99.90;;;;;;5055514;28;20036;-64
2022/11/25 05:37:00;;;;;;;19.58;5.63;;;11.10;99.90;;;;;;5055342;28;20017;-63
2022/11/25 05:39:26;;;;;;;23.83;5.60;;;11.20;99.90;;;;;;5054597;28;20104;-63
2022/11/25 05:41:51;;;;;;;26.92;5.82;;;11.20;99.90;;;;;;5055453;28;20048;-64
2022/11/25 05:44:17;;;;;;;24.63;5.80;;;11.20;99.90;;;;;;5054882;28;20029;-63
2022/11/25 05:46:47;;;;;;;27.67;6.07;;;11.20;99.90;;;;;;5054837;28;20040;-63
2022/11/25 05:49:14;;;;;;;26.05;5.90;;;11.30;99.90;;;;;;5055334;28;20033;-63
2022/11/25 05:51:39;;;;;;;27.30;5.78;;;11.20;99.90;;;;;;5054833;28;20047;-63
2022/11/25 05:54:05;;;;;;;27.73;5.95;;;11.20;99.90;;;;;;5054299;28;20486;-64
2022/11/25 05:56:31;;;;;;;29.63;6.00;;;11.20;99.90;;;;;;5055102;28;20482;-64
2022/11/25 05:59:00;;;;;;;24.92;5.40;;;11.20;99.90;;;;;;5054587;28;20083;-63
2022/11/25 06:01:26;;;;;;;21.13;4.82;;;11.20;99.90;;;;;;5054708;28;20438;-63
2022/11/25 06:03:51;;;;;;;24.40;5.30;;;11.20;99.90;;;;;;5054609;28;20053;-64
2022/11/25 06:06:17;;;;;;;25.58;6.57;;;11.20;99.90;;;;;;5054436;28;20041;-65
2022/11/25 06:08:43;;;;;;;29.27;5.35;;;11.10;99.90;;;;;;5054645;28;20036;-64
2022/11/25 06:11:15;;;;;;;27.60;5.20;;;11.10;99.90;;;;;;5054502;28;20024;-64
2022/11/25 06:13:41;;;;;;;23.10;5.07;;;11.00;99.90;;;;;;5054281;28;20021;-65
2022/11/25 06:16:13;;;;;;;22.63;5.38;;;11.00;99.90;;;;;;5054839;28;20482;-64
2022/11/25 06:18:39;;;;;;;26.75;5.43;;;11.00;99.90;;;;;;5054237;28;20067;-64
2022/11/25 06:21:08;;;;;;;27.48;6.00;;;11.10;99.90;;;;;;5054602;28;20032;-64
2022/11/25 06:23:35;;;;;;;21.92;5.20;;;10.90;99.90;;;;;;5054309;28;20029;-64
2022/11/25 06:26:09;;;;;;;16.88;5.10;;;10.90;99.90;;;;;;5052732;28;20067;-64
2022/11/25 06:28:35;;;;;;;18.52;5.47;;;10.90;99.90;;;;;;5054436;28;20055;-64
2022/11/25 06:31:10;;;;;;;24.88;5.47;;;10.90;99.90;;;;;;5054258;28;20036;-65
2022/11/25 06:33:36;;;;;;;22.63;7.35;;;11.00;99.90;;;;;;5054098;28;20135;-65
2022/11/25 06:36:07;;;;;;;25.95;5.95;;;11.00;99.90;;;;;;5053929;28;20042;-64
2022/11/25 06:38:33;;;;;;;18.80;5.35;;;10.90;99.90;;;;;;5054150;28;20028;-64
2022/11/25 06:41:04;;;;;;;23.02;5.60;;;10.90;99.90;;;;;;5051850;28;20053;-65
2022/11/25 06:43:31;;;;;;;102.13;76.97;;;10.80;99.90;;;;;;5054065;28;20470;-64
2022/11/25 06:46:09;;;;;;;22.52;6.38;;;10.80;99.90;;;;;;5053760;28;20489;-64
2022/11/25 06:48:35;;;;;;;49.13;31.35;;;10.80;99.90;;;;;;5053918;28;20075;-64
2022/11/25 06:51:06;;;;;;;39.28;26.48;;;10.80;99.90;;;;;;5053777;28;20052;-69
2022/11/25 06:53:33;;;;;;;27.42;16.88;;;10.80;99.90;;;;;;5053464;28;20469;-65
2022/11/25 06:56:14;;;;;;;25.73;5.43;;;10.80;99.90;;;;;;5053708;28;20111;-64
2022/11/25 06:58:40;;;;;;;21.08;4.85;;;10.80;99.90;;;;;;5053524;28;20170;-66
2022/11/25 07:01:12;;;;;;;20.33;7.53;;;10.70;99.90;;;;;;5053041;28;20029;-64
2022/11/25 07:03:37;;;;;;;19.05;4.95;;;10.70;99.90;;;;;;5052899;28;20063;-64
2022/11/25 07:06:03;;;;;;;20.27;4.72;;;10.80;99.90;;;;;;5052817;28;20096;-64
2022/11/25 07:08:29;;;;;;;17.35;5.47;;;10.80;99.90;;;;;;5053379;28;20021;-64
2022/11/25 07:11:01;;;;;;;16.77;4.45;;;10.70;99.90;;;;;;5053229;28;20108;-64
2022/11/25 07:13:26;;;;;;;15.00;4.03;;;10.70;99.90;;;;;;5053104;28;20068;-63
2022/11/25 07:15:52;;;;;;;17.00;4.07;;;10.70;99.90;;;;;;5053220;28;20060;-64
2022/11/25 07:18:18;;;;;;;16.98;3.55;;;10.70;99.90;;;;;;5053111;28;20379;-64
2022/11/25 07:20:43;;;;;;;16.88;4.55;;;10.60;99.90;;;;;;5052534;28;20108;-64
2022/11/25 07:23:09;;;;;;;16.45;4.00;;;10.70;99.90;;;;;;5052741;28;20025;-64
2022/11/25 07:25:35;;;;;;;21.95;4.65;;;10.70;99.90;;;;;;5052629;28;20033;-64
2022/11/25 07:28:01;;;;;;;16.38;3.75;;;10.60;99.90;;;;;;5052831;28;20059;-64
2022/11/25 07:30:26;;;;;;;17.17;3.72;;;10.70;99.90;;;;;;5053791;28;20355;-64
2022/11/25 07:32:52;;;;;;;16.98;4.10;;;10.70;99.90;;;;;;5053555;28;20037;-65
2022/11/25 07:35:18;;;;;;;19.35;3.85;;;10.60;99.90;;;;;;5052386;28;20032;-64
2022/11/25 07:37:43;;;;;;;17.73;3.67;;;10.60;99.90;;;;;;5052926;28;20488;-64
2022/11/25 07:40:09;;;;;;;14.65;3.28;;;10.50;99.90;;;;;;5052516;28;20064;-64
2022/11/25 07:42:35;;;;;;;20.60;4.05;;;10.50;99.90;;;;;;5053330;28;20494;-65
2022/11/25 07:45:01;;;;;;;20.25;3.85;;;10.50;99.90;;;;;;5052479;28;20024;-64
2022/11/25 07:47:28;;;;;;;19.25;4.05;;;10.50;99.90;;;;;;5052799;28;20064;-64
2022/11/25 07:49:53;;;;;;;17.42;3.50;;;10.50;99.90;;;;;;5052321;28;20017;-64
2022/11/25 07:52:19;;;;;;;14.57;3.50;;;10.40;99.90;;;;;;5052237;28;20029;-64
2022/11/25 07:54:45;;;;;;;18.58;3.78;;;10.50;99.90;;;;;;5052108;28;20434;-64
2022/11/25 07:57:10;;;;;;;21.98;3.88;;;10.40;99.90;;;;;;5053746;28;20040;-64
2022/11/25 07:59:40;;;;;;;16.95;3.50;;;10.40;99.90;;;;;;5053089;28;20025;-64
2022/11/25 08:02:05;;;;;;;18.10;3.50;;;10.50;99.90;;;;;;5053618;28;20029;-64
2022/11/25 08:04:31;;;;;;;15.20;4.03;;;10.50;99.90;;;;;;5052676;28;20448;-64
2022/11/25 08:06:57;;;;;;;22.10;4.85;;;10.60;99.90;;;;;;5052572;28;20558;-64
2022/11/25 08:09:23;;;;;;;12.00;3.80;;;10.60;99.90;;;;;;5052676;28;20057;-64
2022/11/25 08:11:50;;;;;;;24.55;6.18;;;10.70;99.90;;;;;;5052361;28;20135;-64
2022/11/25 08:14:16;;;;;;;25.80;6.82;;;10.50;99.90;;;;;;5052325;28;20527;-64
2022/11/25 08:16:42;;;;;;;20.15;5.80;;;10.40;99.90;;;;;;5052040;28;20100;-64
2022/11/25 08:19:12;;;;;;;22.80;8.20;;;10.50;99.90;;;;;;5052110;28;20108;-64
2022/11/25 08:21:38;;;;;;;23.95;7.55;;;10.40;99.90;;;;;;5052030;28;20524;-64
2022/11/25 08:24:04;;;;;;;21.00;7.57;;;10.40;99.90;;;;;;5051682;28;20021;-64
2022/11/25 08:26:35;;;;;;;16.25;6.90;;;10.50;99.90;;;;;;5052082;28;20505;-64
2022/11/25 08:29:02;;;;;;;18.70;7.20;;;10.60;99.90;;;;;;5051933;28;20541;-64
2022/11/25 08:31:31;;;;;;;18.20;7.72;;;10.70;99.90;;;;;;5052344;28;20029;-64
2022/11/25 08:33:57;;;;;;;18.30;7.13;;;10.60;99.90;;;;;;5052137;28;20036;-64
2022/11/25 08:36:24;;;;;;;19.60;5.70;;;10.70;99.90;;;;;;5052345;28;20021;-64
2022/11/25 08:38:52;;;;;;;17.83;5.32;;;10.70;99.90;;;;;;5050711;28;20071;-64
2022/11/25 08:41:30;;;;;;;13.68;4.07;;;10.80;99.90;;;;;;5051622;28;20128;-64
2022/11/25 08:43:57;;;;;;;17.45;4.70;;;11.00;99.90;;;;;;5052047;28;20029;-64
2022/11/25 08:46:27;;;;;;;15.95;4.25;;;11.00;99.90;;;;;;5052180;28;20393;-64
2022/11/25 08:48:53;;;;;;;18.23;4.28;;;11.00;99.90;;;;;;5051458;28;20473;-64
2022/11/25 08:51:22;;;;;;;13.43;4.00;;;11.00;99.90;;;;;;5052179;28;20108;-63
2022/11/25 08:53:50;;;;;;;14.57;3.90;;;11.10;99.90;;;;;;5052053;28;20520;-64
2022/11/25 08:56:17;;;;;;;15.80;4.20;;;11.10;99.90;;;;;;5051675;28;20530;-64
2022/11/25 08:58:43;;;;;;;16.67;3.90;;;11.10;99.90;;;;;;5051616;28;20101;-64
2022/11/25 09:01:10;;;;;;;21.35;5.03;;;11.10;99.90;;;;;;5051737;28;20108;-64
2022/11/25 09:03:39;;;;;;;13.05;3.95;;;11.10;99.90;;;;;;5051411;28;20032;-64
2022/11/25 09:06:05;;;;;;;15.35;4.13;;;11.10;99.90;;;;;;5055643;28;20040;-64
2022/11/25 09:08:31;;;;;;;16.85;4.00;;;11.30;99.90;;;;;;5055159;28;20367;-64
2022/11/25 09:10:57;;;;;;;21.77;5.00;;;11.10;99.90;;;;;;5055708;28;20032;-64
2022/11/25 09:13:23;;;;;;;18.42;4.68;;;11.10;99.90;;;;;;5055589;28;20025;-64
2022/11/25 09:15:49;;;;;;;19.90;4.63;;;11.20;99.90;;;;;;5056015;28;20082;-64
2022/11/25 09:18:15;;;;;;;17.58;4.95;;;11.20;99.90;;;;;;5055026;28;20099;-64
2022/11/25 09:20:41;;;;;;;15.35;4.78;;;11.30;99.90;;;;;;5055384;28;20363;-64
2022/11/25 09:23:07;;;;;;;18.10;5.55;;;11.30;99.90;;;;;;5055846;28;20123;-64
2022/11/25 09:25:34;;;;;;;19.40;5.57;;;11.30;99.90;;;;;;5054653;28;20025;-64
2022/11/25 09:28:00;;;;;;;17.73;4.45;;;11.50;99.90;;;;;;5055214;28;20021;-64
2022/11/25 09:30:26;;;;;;;13.90;4.43;;;11.60;99.90;;;;;;5055998;28;20421;-64
2022/11/25 09:32:54;;;;;;;16.60;4.50;;;11.60;99.90;;;;;;5055823;28;20036;-64
2022/11/25 09:35:20;;;;;;;17.55;4.63;;;11.80;99.90;;;;;;5056006;28;20021;-66
2022/11/25 09:37:46;;;;;;;14.73;4.90;;;11.70;99.90;;;;;;5056469;28;20470;-64
2022/11/25 09:40:49;;;;;;;23.55;6.30;;;11.70;99.90;;;;;;5055143;28;20053;-64
2022/11/25 09:46:41;;;;;;;16.58;5.43;;;11.70;99.90;;;;;;5055440;28;20043;-64
2022/11/25 09:49:19;;;;;;;13.45;4.70;;;11.80;99.90;;;;;;5055598;28;20445;-64
2022/11/25 09:51:44;;;;;;;16.00;5.20;;;11.80;99.90;;;;;;5055893;28;20035;-64
2022/11/25 09:54:22;;;;;;;17.58;5.03;;;11.70;99.90;;;;;;5055599;28;20474;-64
2022/11/25 09:57:25;;;;;;;18.25;4.75;;;11.90;99.90;;;;;;5055353;28;20100;-64
2022/11/25 10:00:04;;;;;;;21.45;6.25;;;12.00;99.90;;;;;;5051676;28;20067;-64
2022/11/25 10:02:35;;;;;;;17.27;5.85;;;12.00;99.90;;;;;;5055241;28;20037;-64
2022/11/25 10:05:33;;;;;;;22.25;5.28;;;12.00;99.90;;;;;;5055357;28;20096;-65
2022/11/25 10:08:32;;;;;;;14.77;4.45;;;11.90;99.90;;;;;;5055618;28;20048;-64
2022/11/25 10:11:06;;;;;;;14.73;3.78;;;12.00;99.90;;;;;;5056143;28;20521;-64
2022/11/25 10:13:42;;;;;;;13.52;4.15;;;13.20;99.90;;;;;;5056922;28;20379;-65
2022/11/25 10:16:23;;;;;;;16.73;4.43;;;14.60;99.90;;;;;;5054291;28;20037;-64
2022/11/25 10:19:15;;;;;;;13.38;3.85;;;14.20;99.90;;;;;;5056476;28;20100;-64
2022/11/25 10:21:41;;;;;;;13.40;3.72;;;15.40;99.90;;;;;;5055594;28;20040;-64
2022/11/25 10:24:14;;;;;;;13.52;3.47;;;18.60;99.90;;;;;;5055901;28;20025;-64
2022/11/25 10:26:47;;;;;;;17.23;4.25;;;17.40;99.90;;;;;;5055495;28;20041;-64
2022/11/25 10:29:13;;;;;;;12.77;3.70;;;15.70;99.90;;;;;;5055292;28;20033;-64
2022/11/25 10:31:41;;;;;;;11.82;3.45;;;15.60;99.90;;;;;;5053503;28;20037;-64
2022/11/25 10:34:25;;;;;;;17.10;4.00;;;15.40;99.90;;;;;;5054813;28;20024;-64
2022/11/25 10:36:53;;;;;;;16.45;4.50;;;15.90;99.90;;;;;;5053952;28;20032;-65
2022/11/25 10:39:23;;;;;;;12.65;3.40;;;14.70;99.90;;;;;;5054288;28;20024;-65
2022/11/25 10:41:55;;;;;;;14.45;3.53;;;13.90;99.90;;;;;;5054013;28;20059;-64
2022/11/25 10:44:25;;;;;;;13.55;3.13;;;13.60;99.90;;;;;;5054325;28;20028;-65
2022/11/25 10:47:28;;;;;;;13.70;3.40;;;13.30;99.90;;;;;;5053939;28;20052;-65
2022/11/25 10:50:03;;;;;;;11.10;3.20;;;13.20;99.90;;;;;;5054410;28;20613;-65
2022/11/25 10:52:39;;;;;;;14.23;2.92;;;13.20;99.90;;;;;;5054696;28;20037;-65
2022/11/25 10:55:25;;;;;;;15.40;3.75;;;13.30;99.90;;;;;;5054661;28;20079;-64
2022/11/25 10:57:52;;;;;;;12.30;3.78;;;13.20;99.90;;;;;;5054238;28;20104;-65
2022/11/25 11:00:37;;;;;;;13.18;3.58;;;13.10;99.90;;;;;;5055024;28;20021;-64
2022/11/25 11:03:24;;;;;;;11.45;3.38;;;13.10;99.90;;;;;;5054981;28;20025;-64
2022/11/25 11:05:52;;;;;;;10.55;3.15;;;13.20;99.90;;;;;;5054866;28;20112;-64
2022/11/25 11:08:24;;;;;;;12.57;3.47;;;15.30;99.90;;;;;;5053576;28;20044;-64
2022/11/25 11:11:08;;;;;;;11.57;3.53;;;18.00;99.90;;;;;;5053520;28;20056;-64
2022/11/25 11:13:34;;;;;;;13.73;3.80;;;19.10;99.90;;;;;;5053018;28;20120;-64
2022/11/25 11:16:00;;;;;;;10.50;3.47;;;19.50;99.90;;;;;;5053726;28;20104;-65
2022/11/25 11:18:41;;;;;;;10.63;3.83;;;19.90;99.90;;;;;;5053370;28;20017;-65
2022/11/25 11:21:27;;;;;;;10.45;3.80;;;20.10;99.90;;;;;;5053312;28;20028;-64
2022/11/25 11:23:54;;;;;;;16.92;5.57;;;20.40;99.90;;;;;;5054545;28;20025;-65
2022/11/25 11:26:22;;;;;;;14.02;4.22;;;20.30;99.90;;;;;;5054258;28;20049;-65
2022/11/25 11:29:16;;;;;;;8.95;3.15;;;19.90;99.90;;;;;;5053436;28;20098;-65
2022/11/25 11:31:58;;;;;;;8.25;3.08;;;18.90;99.90;;;;;;5053590;28;20491;-65
2022/11/25 11:34:35;;;;;;;12.55;3.15;;;19.40;99.90;;;;;;5055035;28;20040;-65
2022/11/25 11:37:20;;;;;;;11.15;2.85;;;19.70;99.90;;;;;;5053796;28;20083;-64
2022/11/25 11:40:11;;;;;;;10.52;3.20;;;19.50;99.90;;;;;;5052886;28;20052;-64
2022/11/25 11:43:08;;;;;;;9.93;3.15;;;19.50;99.90;;;;;;5053026;28;20048;-65
2022/11/25 11:45:56;;;;;;;10.55;3.00;;;19.30;99.90;;;;;;5052710;28;20505;-65
2022/11/25 11:48:31;;;;;;;12.35;3.58;;;19.10;99.90;;;;;;5052733;28;20478;-65
2022/11/25 11:51:11;;;;;;;11.05;3.13;;;18.70;99.90;;;;;;5052878;28;20082;-65
2022/11/25 11:53:49;;;;;;;11.55;3.30;;;18.70;99.90;;;;;;5053155;28;20470;-65
2022/11/25 11:56:26;;;;;;;12.35;4.20;;;18.60;99.90;;;;;;5054349;28;20497;-65
2022/11/25 11:58:57;;;;;;;11.45;3.30;;;19.00;99.90;;;;;;5053398;28;20052;-65
2022/11/25 12:01:47;;;;;;;11.35;2.92;;;18.30;99.90;;;;;;5053284;28;20032;-64
2022/11/25 12:04:27;;;;;;;8.13;2.67;;;18.40;99.90;;;;;;5053856;28;20127;-65
2022/11/25 12:07:03;;;;;;;11.32;3.00;;;18.10;99.90;;;;;;5053342;28;20128;-65
2022/11/25 12:09:32;;;;;;;13.68;3.10;;;17.80;99.90;;;;;;5052894;28;20023;-64
2022/11/25 12:12:04;;;;;;;8.27;2.33;;;17.70;99.90;;;;;;5052085;28;20033;-65
2022/11/25 12:14:48;;;;;;;11.45;2.80;;;17.60;99.90;;;;;;5052349;28;20547;-65
2022/11/25 12:17:20;;;;;;;12.30;2.97;;;17.30;99.90;;;;;;5052240;28;20042;-65
2022/11/25 12:20:02;;;;;;;8.23;2.72;;;17.90;99.90;;;;;;5052943;28;20036;-65
2022/11/25 12:22:49;;;;;;;10.23;2.97;;;18.40;99.90;;;;;;5053349;28;20009;-65
2022/11/25 12:25:37;;;;;;;10.00;2.83;;;17.90;99.90;;;;;;5052372;28;20390;-65
2022/11/25 12:28:16;;;;;;;11.32;2.78;;;17.30;99.90;;;;;;5053480;28;20166;-65
2022/11/25 12:30:58;;;;;;;14.75;3.10;;;17.80;99.90;;;;;;5051993;28;20025;-67
2022/11/25 12:33:50;;;;;;;11.20;2.97;;;17.70;99.90;;;;;;5052422;28;20013;-65
2022/11/25 12:36:21;;;;;;;10.13;2.85;;;17.60;99.90;;;;;;5051648;28;20397;-64
2022/11/25 12:38:55;;;;;;;12.95;3.15;;;17.40;99.90;;;;;;5051534;28;20032;-64
2022/11/25 12:41:34;;;;;;;13.27;3.22;;;17.30;99.90;;;;;;5051920;28;20060;-64
2022/11/25 12:44:06;;;;;;;16.00;3.88;;;17.50;99.90;;;;;;5052096;28;20638;-64
2022/11/25 12:46:51;;;;;;;14.15;3.08;;;16.70;99.90;;;;;;5052406;28;20174;-64
2022/11/25 12:49:26;;;;;;;14.30;3.25;;;16.80;99.90;;;;;;5052610;28;20082;-64
2022/11/25 12:52:15;;;;;;;13.50;3.17;;;16.90;99.90;;;;;;5052172;28;20104;-64
2022/11/25 12:55:08;;;;;;;12.30;3.28;;;16.80;99.90;;;;;;5051493;28;20083;-64
2022/11/25 12:57:40;;;;;;;11.90;3.22;;;16.40;99.90;;;;;;5052658;28;20028;-64
2022/11/25 13:00:30;;;;;;;12.88;3.53;;;15.20;99.90;;;;;;5051989;28;20501;-64